createdAt,value
2023-05-24T00:05:11.013Z,2.97
2023-05-24T00:07:38.433Z,3.47
2023-05-24T00:14:56.644Z,3.05
2023-05-24T00:17:23.371Z,3.58
2023-05-24T00:19:50.264Z,3.35
2023-05-24T00:27:45.538Z,3.28
2023-05-24T00:30:12.489Z,3.22
2023-05-24T00:32:39.306Z,3.25
2023-05-24T00:35:06.285Z,3.03
2023-05-24T00:37:32.981Z,3.13
2023-05-24T00:39:59.786Z,3.13
2023-05-24T00:42:26.546Z,2.78
2023-05-24T00:44:53.220Z,2.97
2023-05-24T00:47:19.953Z,3.10
2023-05-24T00:49:47.068Z,2.50
2023-05-24T00:52:14.145Z,2.75
2023-05-24T00:54:40.917Z,2.58
2023-05-24T00:57:08.046Z,3.03
2023-05-24T00:59:34.812Z,3.75
2023-05-24T01:04:28.184Z,2.80
2023-05-24T01:07:13.351Z,2.67
2023-05-24T01:09:51.003Z,3.10
2023-05-24T01:12:37.436Z,2.70
2023-05-24T01:15:24.253Z,2.78
2023-05-24T01:20:18.243Z,2.50
2023-05-24T01:22:51.709Z,2.60
2023-05-24T01:25:33.477Z,3.05
2023-05-24T01:28:01.774Z,3.50
2023-05-24T01:30:28.852Z,3.70
2023-05-24T01:32:55.810Z,3.53
2023-05-24T01:35:22.552Z,3.33
2023-05-24T01:37:49.160Z,3.70
2023-05-24T01:40:16.017Z,3.80
2023-05-24T01:42:49.059Z,4.38
2023-05-24T01:45:23.210Z,3.75
2023-05-24T01:47:56.111Z,3.35
2023-05-24T01:50:23.862Z,3.70
2023-05-24T01:52:53.578Z,3.90
2023-05-24T01:55:21.042Z,4.22
2023-05-24T02:00:15.138Z,4.28
2023-05-24T02:02:42.229Z,4.35
2023-05-24T02:07:35.679Z,4.55
2023-05-24T02:10:02.472Z,3.25
2023-05-24T02:12:29.204Z,3.75
2023-05-24T02:14:57.301Z,4.57
2023-05-24T02:17:27.045Z,4.93
2023-05-24T02:22:22.287Z,4.13
2023-05-24T02:24:49.116Z,3.80
2023-05-24T02:27:15.868Z,3.58
2023-05-24T02:29:42.702Z,3.90
2023-05-24T02:32:09.487Z,3.80
2023-05-24T02:39:27.874Z,3.30
2023-05-24T02:44:20.090Z,3.40
2023-05-24T02:46:46.914Z,3.45
2023-05-24T02:49:13.949Z,3.83
2023-05-24T02:51:40.778Z,2.95
2023-05-24T02:54:07.423Z,2.92
2023-05-24T02:56:34.791Z,2.83
2023-05-24T02:59:02.911Z,3.05
2023-05-24T03:01:30.334Z,3.92
2023-05-24T03:06:24.123Z,2.80
2023-05-24T03:08:51.850Z,3.35
2023-05-24T03:16:13.993Z,4.15
2023-05-24T03:18:41.139Z,3.45
2023-05-24T03:21:07.867Z,2.85
2023-05-24T03:23:34.722Z,3.10
2023-05-24T03:26:01.416Z,2.80
2023-05-24T03:28:30.191Z,3.10
2023-05-24T03:30:57.658Z,3.40
2023-05-24T03:33:24.296Z,2.63
2023-05-24T03:35:51.128Z,3.40
2023-05-24T03:38:17.785Z,2.25
2023-05-24T03:40:46.987Z,2.53
2023-05-24T03:43:17.780Z,2.95
2023-05-24T03:45:44.520Z,2.90
2023-05-24T03:50:39.403Z,2.90
2023-05-24T03:53:06.270Z,2.75
2023-05-24T03:58:13.687Z,3.28
2023-05-24T04:00:40.902Z,2.88
2023-05-24T04:03:09.110Z,3.58
2023-05-24T04:05:35.873Z,2.83
2023-05-24T04:08:03.123Z,2.40
2023-05-24T04:10:29.935Z,6.30
2023-05-24T04:12:57.537Z,2.80
2023-05-24T04:17:55.264Z,1.88
2023-05-24T04:30:10.974Z,1.83
2023-05-24T04:32:37.797Z,1.73
2023-05-24T04:35:04.698Z,1.70
2023-05-24T04:37:33.057Z,1.80
2023-05-24T04:39:59.823Z,1.90
2023-05-24T04:42:27.506Z,1.75
2023-05-24T04:44:54.244Z,1.55
2023-05-24T04:47:20.967Z,1.80
2023-05-24T04:49:47.646Z,1.60
2023-05-24T04:57:05.244Z,1.90
2023-05-24T04:59:32.054Z,1.80
2023-05-24T05:01:58.824Z,1.80
2023-05-24T05:04:25.601Z,2.03
2023-05-24T05:09:19.108Z,1.50
2023-05-24T05:11:48.668Z,1.58
2023-05-24T05:16:41.418Z,1.50
2023-05-24T05:19:08.200Z,1.98
2023-05-24T05:21:35.127Z,1.40
2023-05-24T05:24:02.002Z,1.40
2023-05-24T05:26:28.886Z,1.58
2023-05-24T05:31:21.812Z,1.38
2023-05-24T05:33:48.585Z,2.20
2023-05-24T05:36:15.642Z,1.70
2023-05-24T05:38:42.526Z,1.92
2023-05-24T05:41:09.360Z,1.85
2023-05-24T05:43:36.068Z,1.95
2023-05-24T05:46:02.786Z,2.30
2023-05-24T05:48:29.483Z,1.80
2023-05-24T05:50:56.567Z,1.92
2023-05-24T05:53:23.405Z,1.67
2023-05-24T05:55:50.014Z,1.90
2023-05-24T05:58:16.758Z,1.83
2023-05-24T06:00:43.677Z,2.10
2023-05-24T06:03:18.914Z,2.28
2023-05-24T06:08:13.577Z,2.17
2023-05-24T06:10:43.362Z,1.90
2023-05-24T06:13:10.170Z,2.05
2023-05-24T06:15:37.880Z,3.00
2023-05-24T06:18:04.533Z,2.42
2023-05-24T06:20:31.548Z,2.45
2023-05-24T06:22:59.082Z,2.20
2023-05-24T06:25:26.266Z,2.08
2023-05-24T06:27:53.027Z,2.38
2023-05-24T06:30:20.792Z,2.20
2023-05-24T06:32:48.665Z,2.03
2023-05-24T06:35:15.571Z,2.00
2023-05-24T06:37:44.098Z,2.95
2023-05-24T06:40:11.340Z,2.63
2023-05-24T06:45:21.178Z,3.83
2023-05-24T06:47:48.547Z,8.32
2023-05-24T06:50:15.325Z,15.13
2023-05-24T06:52:41.959Z,15.93
2023-05-24T06:57:34.530Z,25.58
2023-05-24T07:00:47.907Z,20.45
2023-05-24T07:03:14.820Z,13.57
2023-05-24T07:05:41.743Z,10.85
2023-05-24T07:08:09.461Z,11.52
2023-05-24T07:20:18.501Z,3.50
2023-05-24T07:22:45.480Z,4.38
2023-05-24T07:25:12.242Z,3.53
2023-05-24T07:27:39.045Z,3.65
2023-05-24T07:30:09.503Z,4.10
2023-05-24T07:32:43.653Z,4.00
2023-05-24T07:35:13.194Z,3.47
2023-05-24T07:37:40.510Z,4.20
2023-05-24T07:40:13.405Z,2.63
2023-05-24T07:42:40.315Z,2.25
2023-05-24T07:45:07.561Z,2.40
2023-05-24T07:47:34.667Z,2.45
2023-05-24T07:50:01.388Z,1.60
2023-05-24T07:52:28.230Z,2.00
2023-05-24T07:59:45.803Z,2.20
2023-05-24T08:02:13.830Z,1.88
2023-05-24T08:04:40.546Z,1.77
2023-05-24T08:07:09.487Z,1.90
2023-05-24T08:14:32.869Z,1.80
2023-05-24T08:21:55.636Z,2.22
2023-05-24T08:24:22.845Z,1.98
2023-05-24T08:26:51.823Z,1.67
2023-05-24T08:29:18.728Z,1.70
2023-05-24T08:36:37.558Z,1.70
2023-05-24T08:39:05.182Z,1.50
2023-05-24T08:44:05.151Z,1.92
2023-05-24T08:46:33.245Z,1.67
2023-05-24T08:49:00.900Z,2.50
2023-05-24T08:51:27.766Z,1.70
2023-05-24T08:53:54.638Z,1.80
2023-05-24T09:08:35.798Z,1.70
2023-05-24T09:13:29.859Z,2.10
2023-05-24T09:15:56.707Z,2.05
2023-05-24T09:20:48.985Z,2.28
2023-05-24T09:23:16.336Z,1.80
2023-05-24T09:25:46.746Z,2.33
2023-05-24T09:28:14.903Z,2.08
2023-05-24T09:30:45.763Z,2.00
2023-05-24T09:33:13.711Z,3.00
2023-05-24T09:38:18.962Z,2.20
2023-05-24T09:40:47.106Z,2.05
2023-05-24T09:43:13.817Z,2.00
2023-05-24T09:48:16.720Z,2.42
2023-05-24T09:50:47.643Z,2.30
2023-05-24T09:53:17.276Z,2.90
2023-05-24T09:55:43.970Z,2.08
2023-05-24T09:58:12.990Z,3.40
2023-05-24T10:00:41.663Z,2.58
2023-05-24T10:03:11.682Z,2.67
2023-05-24T10:08:09.562Z,2.78
2023-05-24T10:10:36.591Z,2.50
2023-05-24T10:15:29.625Z,3.10
2023-05-24T10:17:56.873Z,2.50
2023-05-24T10:20:24.258Z,2.70
2023-05-24T10:22:58.126Z,2.22
2023-05-24T10:32:46.208Z,2.85
2023-05-24T10:35:15.126Z,2.42
2023-05-24T10:37:42.894Z,2.88
2023-05-24T10:45:21.432Z,2.28
2023-05-24T10:47:48.223Z,1.60
2023-05-24T10:50:18.530Z,2.28
2023-05-24T10:57:38.562Z,1.90
2023-05-24T11:03:02.436Z,2.35
2023-05-24T11:05:50.557Z,1.98
2023-05-24T11:08:24.029Z,2.03
2023-05-24T11:10:51.475Z,1.80
2023-05-24T11:13:18.964Z,1.88
2023-05-24T11:15:52.081Z,1.77
2023-05-24T11:18:22.323Z,2.10
2023-05-24T11:20:51.865Z,2.30
2023-05-24T11:23:19.272Z,2.20
2023-05-24T11:25:49.393Z,1.90
2023-05-24T11:28:16.540Z,1.95
2023-05-24T11:33:33.442Z,1.98
2023-05-24T11:36:00.319Z,2.28
2023-05-24T11:40:54.053Z,1.92
2023-05-24T11:43:21.922Z,1.95
2023-05-24T11:50:49.543Z,1.75
2023-05-24T11:53:20.255Z,1.80
2023-05-24T11:55:48.854Z,2.20
2023-05-24T11:58:24.898Z,1.92
2023-05-24T12:00:52.119Z,2.45
2023-05-24T12:03:19.312Z,2.10
2023-05-24T12:05:46.121Z,1.90
2023-05-24T12:08:15.523Z,2.35
2023-05-24T12:10:43.195Z,2.45
2023-05-24T12:20:52.297Z,2.58
2023-05-24T12:23:20.210Z,2.13
2023-05-24T12:28:13.005Z,3.25
2023-05-24T12:30:43.644Z,3.17
2023-05-24T12:33:11.108Z,2.30
2023-05-24T12:35:40.495Z,2.20
2023-05-24T12:38:08.962Z,3.83
2023-05-24T12:40:35.655Z,2.67
2023-05-24T12:43:03.074Z,2.67
2023-05-24T12:45:29.824Z,3.20
2023-05-24T12:47:57.797Z,2.97
2023-05-24T12:52:54.610Z,3.08
2023-05-24T12:55:30.393Z,2.63
2023-05-24T12:57:58.107Z,2.67
2023-05-24T13:00:27.657Z,2.85
2023-05-24T13:02:56.926Z,3.15
2023-05-24T13:07:50.786Z,2.70
2023-05-24T13:10:18.143Z,2.70
2023-05-24T13:15:10.744Z,3.00
2023-05-24T13:17:37.552Z,2.78
2023-05-24T13:20:06.978Z,3.15
2023-05-24T13:22:34.661Z,3.05
2023-05-24T13:25:02.754Z,2.53
2023-05-24T13:27:29.741Z,3.05
2023-05-24T13:30:00.873Z,3.20
2023-05-24T13:32:28.427Z,2.80
2023-05-24T13:42:11.869Z,3.00
2023-05-24T13:44:39.178Z,3.20
2023-05-24T13:47:06.065Z,3.03
2023-05-24T13:49:32.761Z,2.28
2023-05-24T13:51:59.466Z,3.00
2023-05-24T13:54:26.540Z,2.80
2023-05-24T13:59:23.107Z,2.78
2023-05-24T14:01:50.003Z,3.53
2023-05-24T14:06:42.561Z,3.78
2023-05-24T14:09:09.659Z,3.25
2023-05-24T14:11:39.670Z,3.00
2023-05-24T14:19:02.288Z,3.88
2023-05-24T14:21:31.144Z,4.95
2023-05-24T14:28:49.189Z,3.58
2023-05-24T14:43:26.365Z,4.20
2023-05-24T14:45:53.674Z,3.42
2023-05-24T14:48:20.682Z,3.33
2023-05-24T14:50:52.466Z,2.88
2023-05-24T14:53:20.312Z,3.50
2023-05-24T14:55:47.261Z,2.83
2023-05-24T14:58:15.500Z,3.45
2023-05-24T15:00:42.714Z,3.60
2023-05-24T15:03:11.450Z,2.97
2023-05-24T15:05:39.263Z,3.03
2023-05-24T15:10:33.549Z,3.38
2023-05-24T15:13:01.501Z,3.22
2023-05-24T15:15:28.774Z,3.35
2023-05-24T15:20:21.552Z,2.92
2023-05-24T15:22:48.286Z,3.63
2023-05-24T15:32:31.889Z,3.60
2023-05-24T15:35:00.514Z,3.28
2023-05-24T15:37:27.592Z,3.60
2023-05-24T15:44:47.088Z,3.53
2023-05-24T15:49:40.436Z,3.50
2023-05-24T15:52:07.465Z,3.40
2023-05-24T15:54:34.430Z,2.72
2023-05-24T15:57:02.103Z,3.60
2023-05-24T15:59:29.003Z,3.42
2023-05-24T16:01:56.696Z,3.35
2023-05-24T16:11:40.484Z,4.00
2023-05-24T16:14:07.310Z,3.80
2023-05-24T16:16:34.006Z,3.85
2023-05-24T16:19:00.722Z,4.10
2023-05-24T16:21:28.870Z,3.95
2023-05-24T16:23:55.739Z,3.72
2023-05-24T16:26:22.861Z,3.78
2023-05-24T16:28:49.998Z,4.15
2023-05-24T16:31:16.733Z,3.85
2023-05-24T16:38:38.072Z,4.30
2023-05-24T16:41:06.174Z,4.47
2023-05-24T16:43:33.269Z,5.00
2023-05-24T16:48:28.802Z,5.22
2023-05-24T16:50:56.847Z,5.03
2023-05-24T16:53:24.720Z,5.07
2023-05-24T16:56:09.728Z,4.82
2023-05-24T17:01:03.729Z,4.97
2023-05-24T17:03:32.272Z,4.47
2023-05-24T17:09:02.126Z,3.70
2023-05-24T17:11:28.845Z,3.97
2023-05-24T17:13:55.846Z,2.80
2023-05-24T17:23:48.279Z,2.97
2023-05-24T17:26:20.753Z,3.83
2023-05-24T17:51:02.115Z,3.90
2023-05-24T17:55:59.424Z,4.70
2023-05-24T17:58:26.271Z,4.28
2023-05-24T18:13:01.154Z,4.13
2023-05-24T18:15:30.912Z,3.75
2023-05-24T18:17:57.828Z,3.63
2023-05-24T18:25:18.173Z,3.42
2023-05-24T18:27:45.165Z,3.67
2023-05-24T18:30:12.688Z,3.58
2023-05-24T18:32:48.875Z,3.72
2023-05-24T18:35:26.927Z,3.58
2023-05-24T18:37:53.711Z,3.15
2023-05-24T18:40:21.332Z,3.50
2023-05-24T18:42:48.117Z,4.35
2023-05-24T18:45:14.957Z,4.22
2023-05-24T18:47:41.686Z,3.42
2023-05-24T18:59:51.942Z,4.63
2023-05-24T19:07:16.010Z,4.43
2023-05-24T19:17:02.547Z,3.83
2023-05-24T19:19:29.686Z,3.80
2023-05-24T19:21:56.355Z,4.07
2023-05-24T19:24:24.363Z,4.28
2023-05-24T19:26:51.148Z,4.93
2023-05-24T19:29:18.207Z,5.20
2023-05-24T19:36:38.113Z,4.70
2023-05-24T19:39:04.937Z,4.60
2023-05-24T19:41:31.654Z,4.30
2023-05-24T19:44:01.627Z,4.75
2023-05-24T19:48:54.193Z,5.50
2023-05-24T19:51:21.382Z,4.90
2023-05-24T19:53:48.037Z,6.30
2023-05-24T19:58:40.564Z,4.93
2023-05-24T20:01:07.385Z,5.25
2023-05-24T20:03:35.347Z,5.57
2023-05-24T20:06:02.473Z,5.20
2023-05-24T20:08:29.394Z,5.13
2023-05-24T20:10:56.757Z,5.25
2023-05-24T20:15:49.001Z,5.28
2023-05-24T20:18:15.905Z,5.20
2023-05-24T20:20:42.669Z,5.32
2023-05-24T20:25:34.940Z,5.22
2023-05-24T20:28:01.680Z,5.15
2023-05-24T20:30:28.457Z,5.43
2023-05-24T20:32:55.220Z,5.55
2023-05-24T20:35:21.991Z,6.47
2023-05-24T20:37:48.783Z,5.57
2023-05-24T20:40:23.054Z,5.35
2023-05-24T20:42:50.011Z,5.85
2023-05-24T20:45:16.909Z,5.95
2023-05-24T20:47:43.714Z,5.97
2023-05-24T20:52:36.464Z,6.30
2023-05-24T20:55:03.242Z,6.05
2023-05-24T20:57:29.952Z,6.22
2023-05-24T20:59:56.757Z,6.35
2023-05-24T21:02:23.583Z,6.15
2023-05-24T21:04:50.740Z,5.88
2023-05-24T21:07:17.553Z,5.97
2023-05-24T21:09:44.347Z,6.28
2023-05-24T21:12:11.249Z,6.53
2023-05-24T21:14:38.072Z,6.85
2023-05-24T21:17:04.897Z,6.50
2023-05-24T21:19:31.803Z,6.25
2023-05-24T21:21:58.605Z,6.28
2023-05-24T21:24:25.287Z,6.93
2023-05-24T21:26:52.147Z,7.10
2023-05-24T21:29:19.511Z,8.30
2023-05-24T21:31:46.541Z,8.57
2023-05-24T21:36:38.700Z,7.38
2023-05-24T21:39:08.548Z,7.45
2023-05-24T21:44:01.920Z,7.38
2023-05-24T21:46:33.721Z,7.80
2023-05-24T21:49:00.867Z,7.03
2023-05-24T21:51:27.646Z,7.28
2023-05-24T21:53:54.407Z,7.18
2023-05-24T22:01:12.027Z,7.65
2023-05-24T22:03:38.831Z,8.98
2023-05-24T22:10:57.165Z,9.05
2023-05-24T22:13:23.975Z,8.00
2023-05-24T22:18:21.208Z,9.68
2023-05-24T22:20:48.082Z,9.30
2023-05-24T22:25:40.393Z,9.32
2023-05-24T22:28:09.322Z,9.25
2023-05-24T22:30:36.436Z,9.65
2023-05-24T22:33:03.355Z,9.57
2023-05-24T22:35:30.112Z,9.38
2023-05-24T22:37:56.842Z,9.30
2023-05-24T22:40:23.545Z,9.15
2023-05-24T22:42:50.200Z,9.40
2023-05-24T22:47:42.658Z,10.95
2023-05-24T22:50:10.009Z,11.38
2023-05-24T22:52:42.500Z,10.77
2023-05-24T22:55:10.983Z,11.02
2023-05-24T22:57:37.814Z,10.90
2023-05-24T23:05:00.303Z,10.93
2023-05-24T23:07:27.328Z,11.45
2023-05-24T23:09:54.826Z,11.05
2023-05-24T23:12:21.561Z,10.95
2023-05-24T23:17:14.220Z,11.18
2023-05-24T23:19:44.431Z,12.05
2023-05-24T23:24:42.439Z,12.20
2023-05-24T23:27:09.360Z,12.30
2023-05-24T23:29:36.044Z,11.98
2023-05-24T23:34:28.182Z,12.57
2023-05-24T23:36:54.974Z,12.45
2023-05-24T23:39:21.681Z,12.10
2023-05-24T23:41:48.432Z,10.98
2023-05-24T23:44:15.146Z,12.30
2023-05-24T23:49:08.135Z,12.82
2023-05-24T23:51:34.992Z,11.50
2023-05-24T23:56:27.216Z,12.02
2023-05-24T23:58:54.084Z,11.65
